sensor_id;sensor_type;location;lat;lon;timestamp;temperature;humidity
46217;DHT22;47258;59.424;13.482;2023-04-09T00:01:35;4.30;99.50
46217;DHT22;47258;59.424;13.482;2023-04-09T00:04:07;4.20;99.40
46217;DHT22;47258;59.424;13.482;2023-04-09T00:06:41;4.20;99.40
46217;DHT22;47258;59.424;13.482;2023-04-09T00:09:13;4.10;99.40
46217;DHT22;47258;59.424;13.482;2023-04-09T00:11:48;4.10;99.50
46217;DHT22;47258;59.424;13.482;2023-04-09T00:14:19;4.10;99.70
46217;DHT22;47258;59.424;13.482;2023-04-09T00:16:52;4.00;99.60
46217;DHT22;47258;59.424;13.482;2023-04-09T00:19:27;3.90;99.50
46217;DHT22;47258;59.424;13.482;2023-04-09T00:21:56;3.90;99.50
46217;DHT22;47258;59.424;13.482;2023-04-09T00:24:24;3.90;99.50
46217;DHT22;47258;59.424;13.482;2023-04-09T00:26:54;3.80;99.50
46217;DHT22;47258;59.424;13.482;2023-04-09T00:29:28;3.80;99.70
46217;DHT22;47258;59.424;13.482;2023-04-09T00:32:05;3.80;99.90
46217;DHT22;47258;59.424;13.482;2023-04-09T00:34:39;3.80;99.90
46217;DHT22;47258;59.424;13.482;2023-04-09T00:37:09;3.70;99.90
46217;DHT22;47258;59.424;13.482;2023-04-09T00:39:39;3.70;99.90
46217;DHT22;47258;59.424;13.482;2023-04-09T00:42:09;3.70;99.90
46217;DHT22;47258;59.424;13.482;2023-04-09T00:44:42;3.60;99.90
46217;DHT22;47258;59.424;13.482;2023-04-09T00:47:20;3.60;99.90
46217;DHT22;47258;59.424;13.482;2023-04-09T00:49:52;3.50;99.90
46217;DHT22;47258;59.424;13.482;2023-04-09T00:52:23;3.50;99.90
46217;DHT22;47258;59.424;13.482;2023-04-09T00:54:52;3.40;99.90
46217;DHT22;47258;59.424;13.482;2023-04-09T00:57:23;3.40;99.90
46217;DHT22;47258;59.424;13.482;2023-04-09T00:59:55;3.30;99.90
46217;DHT22;47258;59.424;13.482;2023-04-09T01:02:30;3.30;99.90
46217;DHT22;47258;59.424;13.482;2023-04-09T01:05:01;3.20;99.90
46217;DHT22;47258;59.424;13.482;2023-04-09T01:07:33;3.20;99.90
46217;DHT22;47258;59.424;13.482;2023-04-09T01:10:06;3.20;99.90
46217;DHT22;47258;59.424;13.482;2023-04-09T01:12:37;3.20;99.90
46217;DHT22;47258;59.424;13.482;2023-04-09T01:15:13;3.20;99.90
46217;DHT22;47258;59.424;13.482;2023-04-09T01:17:47;3.20;99.90
46217;DHT22;47258;59.424;13.482;2023-04-09T01:20:20;3.10;99.90
46217;DHT22;47258;59.424;13.482;2023-04-09T01:22:54;3.10;99.90
46217;DHT22;47258;59.424;13.482;2023-04-09T01:25:28;3.10;99.90
46217;DHT22;47258;59.424;13.482;2023-04-09T01:30:56;3.10;99.90
46217;DHT22;47258;59.424;13.482;2023-04-09T01:33:30;3.10;99.90
46217;DHT22;47258;59.424;13.482;2023-04-09T01:36:00;3.10;99.90
46217;DHT22;47258;59.424;13.482;2023-04-09T01:38:32;3.10;99.90
46217;DHT22;47258;59.424;13.482;2023-04-09T01:41:07;3.10;99.90
46217;DHT22;47258;59.424;13.482;2023-04-09T01:43:40;3.00;99.90
46217;DHT22;47258;59.424;13.482;2023-04-09T01:46:16;3.00;99.90
46217;DHT22;47258;59.424;13.482;2023-04-09T01:48:48;3.00;99.90
46217;DHT22;47258;59.424;13.482;2023-04-09T01:51:18;3.00;99.90
46217;DHT22;47258;59.424;13.482;2023-04-09T01:53:48;3.00;99.90
46217;DHT22;47258;59.424;13.482;2023-04-09T01:56:21;3.00;99.90
46217;DHT22;47258;59.424;13.482;2023-04-09T01:58:50;2.90;99.90
46217;DHT22;47258;59.424;13.482;2023-04-09T02:01:30;2.90;99.90
46217;DHT22;47258;59.424;13.482;2023-04-09T02:04:04;2.90;99.90
46217;DHT22;47258;59.424;13.482;2023-04-09T02:06:43;2.90;99.90
46217;DHT22;47258;59.424;13.482;2023-04-09T02:09:15;2.90;99.90
46217;DHT22;47258;59.424;13.482;2023-04-09T02:11:48;2.90;99.90
46217;DHT22;47258;59.424;13.482;2023-04-09T02:14:19;2.90;99.90
46217;DHT22;47258;59.424;13.482;2023-04-09T02:16:55;2.90;99.90
46217;DHT22;47258;59.424;13.482;2023-04-09T02:19:38;2.90;99.90
46217;DHT22;47258;59.424;13.482;2023-04-09T02:22:10;2.90;99.90
46217;DHT22;47258;59.424;13.482;2023-04-09T02:24:42;2.90;99.90
46217;DHT22;47258;59.424;13.482;2023-04-09T02:27:15;2.90;99.90
46217;DHT22;47258;59.424;13.482;2023-04-09T02:29:46;2.90;99.90
46217;DHT22;47258;59.424;13.482;2023-04-09T02:32:20;2.90;99.90
46217;DHT22;47258;59.424;13.482;2023-04-09T02:34:50;2.80;99.90
46217;DHT22;47258;59.424;13.482;2023-04-09T02:37:19;2.80;99.90
46217;DHT22;47258;59.424;13.482;2023-04-09T02:39:50;2.80;99.90
46217;DHT22;47258;59.424;13.482;2023-04-09T02:42:18;2.80;99.90
46217;DHT22;47258;59.424;13.482;2023-04-09T02:44:53;2.70;99.90
46217;DHT22;47258;59.424;13.482;2023-04-09T02:47:32;2.70;99.90
46217;DHT22;47258;59.424;13.482;2023-04-09T02:50:08;2.60;99.90
46217;DHT22;47258;59.424;13.482;2023-04-09T02:52:36;2.60;99.90
46217;DHT22;47258;59.424;13.482;2023-04-09T02:55:07;2.60;99.90
46217;DHT22;47258;59.424;13.482;2023-04-09T02:57:35;2.60;99.90
46217;DHT22;47258;59.424;13.482;2023-04-09T03:00:04;2.50;99.90
46217;DHT22;47258;59.424;13.482;2023-04-09T03:02:35;2.50;99.90
46217;DHT22;47258;59.424;13.482;2023-04-09T03:05:06;2.50;99.90
46217;DHT22;47258;59.424;13.482;2023-04-09T03:07:38;2.50;99.90
46217;DHT22;47258;59.424;13.482;2023-04-09T03:10:09;2.40;99.90
46217;DHT22;47258;59.424;13.482;2023-04-09T03:12:39;2.40;99.90
46217;DHT22;47258;59.424;13.482;2023-04-09T03:15:09;2.40;99.90
46217;DHT22;47258;59.424;13.482;2023-04-09T03:17:44;2.40;99.90
46217;DHT22;47258;59.424;13.482;2023-04-09T03:20:19;2.40;99.90
46217;DHT22;47258;59.424;13.482;2023-04-09T03:22:52;2.40;99.90
46217;DHT22;47258;59.424;13.482;2023-04-09T03:25:21;2.40;99.90
46217;DHT22;47258;59.424;13.482;2023-04-09T03:27:52;2.30;99.90
46217;DHT22;47258;59.424;13.482;2023-04-09T03:30:24;2.30;99.90
46217;DHT22;47258;59.424;13.482;2023-04-09T03:32:56;2.30;99.90
46217;DHT22;47258;59.424;13.482;2023-04-09T03:35:24;2.20;99.90
46217;DHT22;47258;59.424;13.482;2023-04-09T03:37:59;2.20;99.90
46217;DHT22;47258;59.424;13.482;2023-04-09T03:40:35;2.10;99.90
46217;DHT22;47258;59.424;13.482;2023-04-09T03:43:04;2.10;99.90
46217;DHT22;47258;59.424;13.482;2023-04-09T03:45:33;2.10;99.90
46217;DHT22;47258;59.424;13.482;2023-04-09T03:48:07;2.10;99.90
46217;DHT22;47258;59.424;13.482;2023-04-09T03:50:39;2.10;99.90
46217;DHT22;47258;59.424;13.482;2023-04-09T03:53:14;2.00;99.90
46217;DHT22;47258;59.424;13.482;2023-04-09T03:55:45;2.00;99.90
46217;DHT22;47258;59.424;13.482;2023-04-09T03:58:14;2.00;99.90
46217;DHT22;47258;59.424;13.482;2023-04-09T04:00:47;1.90;99.90
46217;DHT22;47258;59.424;13.482;2023-04-09T04:03:20;1.90;99.90
46217;DHT22;47258;59.424;13.482;2023-04-09T04:05:51;1.90;99.90
46217;DHT22;47258;59.424;13.482;2023-04-09T04:08:20;1.90;99.90
46217;DHT22;47258;59.424;13.482;2023-04-09T04:10:51;1.90;99.90
46217;DHT22;47258;59.424;13.482;2023-04-09T04:13:23;1.90;99.90
46217;DHT22;47258;59.424;13.482;2023-04-09T04:15:57;1.80;99.90
46217;DHT22;47258;59.424;13.482;2023-04-09T04:18:30;1.80;99.90
46217;DHT22;47258;59.424;13.482;2023-04-09T04:21:00;1.80;99.90
46217;DHT22;47258;59.424;13.482;2023-04-09T04:23:31;1.70;99.90
46217;DHT22;47258;59.424;13.482;2023-04-09T04:26:01;1.70;99.90
46217;DHT22;47258;59.424;13.482;2023-04-09T04:28:29;1.70;99.90
46217;DHT22;47258;59.424;13.482;2023-04-09T04:31:01;1.70;99.90
46217;DHT22;47258;59.424;13.482;2023-04-09T04:33:36;1.60;99.90
46217;DHT22;47258;59.424;13.482;2023-04-09T04:36:05;1.60;99.90
46217;DHT22;47258;59.424;13.482;2023-04-09T04:38:32;1.60;99.90
46217;DHT22;47258;59.424;13.482;2023-04-09T04:41:03;1.60;99.90
46217;DHT22;47258;59.424;13.482;2023-04-09T04:43:36;1.60;99.90
46217;DHT22;47258;59.424;13.482;2023-04-09T04:46:06;1.50;99.90
46217;DHT22;47258;59.424;13.482;2023-04-09T04:48:42;1.50;99.90
46217;DHT22;47258;59.424;13.482;2023-04-09T04:51:10;1.50;99.90
46217;DHT22;47258;59.424;13.482;2023-04-09T04:53:38;1.40;99.90
46217;DHT22;47258;59.424;13.482;2023-04-09T04:56:11;1.40;99.90
46217;DHT22;47258;59.424;13.482;2023-04-09T04:58:41;1.40;99.90
46217;DHT22;47258;59.424;13.482;2023-04-09T05:01:09;1.40;99.90
46217;DHT22;47258;59.424;13.482;2023-04-09T05:03:42;1.40;99.90
46217;DHT22;47258;59.424;13.482;2023-04-09T05:06:14;1.40;99.90
46217;DHT22;47258;59.424;13.482;2023-04-09T05:08:43;1.40;99.90
46217;DHT22;47258;59.424;13.482;2023-04-09T05:11:15;1.40;99.90
46217;DHT22;47258;59.424;13.482;2023-04-09T05:13:47;1.40;99.90
46217;DHT22;47258;59.424;13.482;2023-04-09T05:16:18;1.40;99.90
46217;DHT22;47258;59.424;13.482;2023-04-09T05:18:52;1.50;99.90
46217;DHT22;47258;59.424;13.482;2023-04-09T05:21:25;1.50;99.90
46217;DHT22;47258;59.424;13.482;2023-04-09T05:23:57;1.50;99.90
46217;DHT22;47258;59.424;13.482;2023-04-09T05:26:25;1.60;99.90
46217;DHT22;47258;59.424;13.482;2023-04-09T05:28:55;1.60;99.90
46217;DHT22;47258;59.424;13.482;2023-04-09T05:31:22;1.70;99.90
46217;DHT22;47258;59.424;13.482;2023-04-09T05:33:52;1.70;99.90
46217;DHT22;47258;59.424;13.482;2023-04-09T05:36:23;1.70;99.90
46217;DHT22;47258;59.424;13.482;2023-04-09T05:38:52;1.80;99.90
46217;DHT22;47258;59.424;13.482;2023-04-09T05:41:20;1.80;99.90
46217;DHT22;47258;59.424;13.482;2023-04-09T05:43:50;1.90;99.90
46217;DHT22;47258;59.424;13.482;2023-04-09T05:46:18;1.90;99.90
46217;DHT22;47258;59.424;13.482;2023-04-09T05:48:49;2.00;99.90
46217;DHT22;47258;59.424;13.482;2023-04-09T05:51:23;2.00;99.90
46217;DHT22;47258;59.424;13.482;2023-04-09T05:53:51;2.10;99.90
46217;DHT22;47258;59.424;13.482;2023-04-09T05:56:19;2.10;99.90
46217;DHT22;47258;59.424;13.482;2023-04-09T05:58:48;2.20;99.90
46217;DHT22;47258;59.424;13.482;2023-04-09T06:01:21;2.20;99.90
46217;DHT22;47258;59.424;13.482;2023-04-09T06:03:51;2.30;99.90
46217;DHT22;47258;59.424;13.482;2023-04-09T06:06:21;2.30;99.90
46217;DHT22;47258;59.424;13.482;2023-04-09T06:08:52;2.40;99.90
46217;DHT22;47258;59.424;13.482;2023-04-09T06:11:23;2.50;99.90
46217;DHT22;47258;59.424;13.482;2023-04-09T06:13:53;2.50;99.90
46217;DHT22;47258;59.424;13.482;2023-04-09T06:16:23;2.60;99.90
46217;DHT22;47258;59.424;13.482;2023-04-09T06:18:53;2.60;99.90
46217;DHT22;47258;59.424;13.482;2023-04-09T06:21:24;2.70;99.90
46217;DHT22;47258;59.424;13.482;2023-04-09T06:23:59;2.80;99.90
46217;DHT22;47258;59.424;13.482;2023-04-09T06:26:29;2.90;99.90
46217;DHT22;47258;59.424;13.482;2023-04-09T06:29:01;2.90;99.90
46217;DHT22;47258;59.424;13.482;2023-04-09T06:31:31;3.00;99.90
46217;DHT22;47258;59.424;13.482;2023-04-09T06:34:04;3.10;99.90
46217;DHT22;47258;59.424;13.482;2023-04-09T06:36:33;3.20;99.90
46217;DHT22;47258;59.424;13.482;2023-04-09T06:39:04;3.20;99.90
46217;DHT22;47258;59.424;13.482;2023-04-09T06:41:33;3.30;99.90
46217;DHT22;47258;59.424;13.482;2023-04-09T06:44:01;3.40;99.90
46217;DHT22;47258;59.424;13.482;2023-04-09T06:46:34;3.40;99.90
46217;DHT22;47258;59.424;13.482;2023-04-09T06:49:02;3.50;99.90
46217;DHT22;47258;59.424;13.482;2023-04-09T06:51:30;3.60;99.90
46217;DHT22;47258;59.424;13.482;2023-04-09T06:53:58;3.70;99.90
46217;DHT22;47258;59.424;13.482;2023-04-09T06:56:27;3.80;99.90
46217;DHT22;47258;59.424;13.482;2023-04-09T06:58:58;3.90;99.90
46217;DHT22;47258;59.424;13.482;2023-04-09T07:01:25;4.00;99.90
46217;DHT22;47258;59.424;13.482;2023-04-09T07:03:53;4.00;99.90
46217;DHT22;47258;59.424;13.482;2023-04-09T07:06:21;4.10;99.90
46217;DHT22;47258;59.424;13.482;2023-04-09T07:08:56;4.20;99.90
46217;DHT22;47258;59.424;13.482;2023-04-09T07:11:26;4.30;99.90
46217;DHT22;47258;59.424;13.482;2023-04-09T07:13:59;4.40;99.90
46217;DHT22;47258;59.424;13.482;2023-04-09T07:16:27;4.50;99.90
46217;DHT22;47258;59.424;13.482;2023-04-09T07:18:56;4.60;99.90
46217;DHT22;47258;59.424;13.482;2023-04-09T07:21:26;4.70;99.90
46217;DHT22;47258;59.424;13.482;2023-04-09T07:23:59;4.80;99.90
46217;DHT22;47258;59.424;13.482;2023-04-09T07:26:31;4.90;99.90
46217;DHT22;47258;59.424;13.482;2023-04-09T07:29:01;5.00;99.90
46217;DHT22;47258;59.424;13.482;2023-04-09T07:31:30;5.10;99.90
46217;DHT22;47258;59.424;13.482;2023-04-09T07:33:58;5.20;99.90
46217;DHT22;47258;59.424;13.482;2023-04-09T07:36:26;5.30;99.90
46217;DHT22;47258;59.424;13.482;2023-04-09T07:38:55;5.40;99.90
46217;DHT22;47258;59.424;13.482;2023-04-09T07:41:23;5.50;99.90
46217;DHT22;47258;59.424;13.482;2023-04-09T07:43:52;5.60;99.90
46217;DHT22;47258;59.424;13.482;2023-04-09T07:46:22;5.70;99.90
46217;DHT22;47258;59.424;13.482;2023-04-09T07:48:51;5.70;99.90
46217;DHT22;47258;59.424;13.482;2023-04-09T07:51:18;5.80;99.90
46217;DHT22;47258;59.424;13.482;2023-04-09T07:53:47;5.90;99.90
46217;DHT22;47258;59.424;13.482;2023-04-09T07:56:15;5.90;99.90
46217;DHT22;47258;59.424;13.482;2023-04-09T07:58:43;6.00;99.90
46217;DHT22;47258;59.424;13.482;2023-04-09T08:01:11;6.10;99.90
46217;DHT22;47258;59.424;13.482;2023-04-09T08:03:42;6.10;99.90
46217;DHT22;47258;59.424;13.482;2023-04-09T08:06:12;6.20;99.90
46217;DHT22;47258;59.424;13.482;2023-04-09T08:08:41;6.20;99.90
46217;DHT22;47258;59.424;13.482;2023-04-09T08:11:10;6.30;99.90
46217;DHT22;47258;59.424;13.482;2023-04-09T08:13:38;6.30;99.90
46217;DHT22;47258;59.424;13.482;2023-04-09T08:16:07;6.40;99.90
46217;DHT22;47258;59.424;13.482;2023-04-09T08:18:37;6.40;99.90
46217;DHT22;47258;59.424;13.482;2023-04-09T08:21:12;6.40;99.90
46217;DHT22;47258;59.424;13.482;2023-04-09T08:23:42;6.50;99.90
46217;DHT22;47258;59.424;13.482;2023-04-09T08:26:10;6.50;99.90
46217;DHT22;47258;59.424;13.482;2023-04-09T08:28:42;6.60;99.90
46217;DHT22;47258;59.424;13.482;2023-04-09T08:31:11;6.60;99.90
46217;DHT22;47258;59.424;13.482;2023-04-09T08:33:41;6.70;99.90
46217;DHT22;47258;59.424;13.482;2023-04-09T08:36:14;6.70;99.90
46217;DHT22;47258;59.424;13.482;2023-04-09T08:38:46;6.80;99.90
46217;DHT22;47258;59.424;13.482;2023-04-09T08:41:19;6.80;99.90
46217;DHT22;47258;59.424;13.482;2023-04-09T08:43:48;6.90;99.90
46217;DHT22;47258;59.424;13.482;2023-04-09T08:46:18;6.90;99.90
46217;DHT22;47258;59.424;13.482;2023-04-09T08:48:48;7.00;99.90
46217;DHT22;47258;59.424;13.482;2023-04-09T08:51:26;7.10;99.90
46217;DHT22;47258;59.424;13.482;2023-04-09T08:53:56;7.10;99.90
46217;DHT22;47258;59.424;13.482;2023-04-09T08:56:31;7.10;99.90
46217;DHT22;47258;59.424;13.482;2023-04-09T08:58:59;7.20;99.90
46217;DHT22;47258;59.424;13.482;2023-04-09T09:01:27;7.20;99.90
46217;DHT22;47258;59.424;13.482;2023-04-09T09:03:58;7.30;99.90
46217;DHT22;47258;59.424;13.482;2023-04-09T09:06:27;7.30;99.90
46217;DHT22;47258;59.424;13.482;2023-04-09T09:09:04;7.30;99.90
46217;DHT22;47258;59.424;13.482;2023-04-09T09:11:35;7.40;99.90
46217;DHT22;47258;59.424;13.482;2023-04-09T09:14:03;7.50;99.90
46217;DHT22;47258;59.424;13.482;2023-04-09T09:16:37;7.50;99.90
46217;DHT22;47258;59.424;13.482;2023-04-09T09:19:07;7.50;99.90
46217;DHT22;47258;59.424;13.482;2023-04-09T09:21:37;7.60;99.90
46217;DHT22;47258;59.424;13.482;2023-04-09T09:24:15;7.70;99.90
46217;DHT22;47258;59.424;13.482;2023-04-09T09:26:47;7.70;99.90
46217;DHT22;47258;59.424;13.482;2023-04-09T09:29:15;7.70;99.90
46217;DHT22;47258;59.424;13.482;2023-04-09T09:31:45;7.80;99.90
46217;DHT22;47258;59.424;13.482;2023-04-09T09:34:14;7.90;99.90
46217;DHT22;47258;59.424;13.482;2023-04-09T09:36:47;7.90;99.90
46217;DHT22;47258;59.424;13.482;2023-04-09T09:39:20;8.00;99.90
46217;DHT22;47258;59.424;13.482;2023-04-09T09:41:47;8.00;99.90
46217;DHT22;47258;59.424;13.482;2023-04-09T09:44:33;8.10;99.90
46217;DHT22;47258;59.424;13.482;2023-04-09T09:47:01;8.20;99.90
46217;DHT22;47258;59.424;13.482;2023-04-09T09:49:29;8.20;99.90
46217;DHT22;47258;59.424;13.482;2023-04-09T09:51:58;8.30;99.90
46217;DHT22;47258;59.424;13.482;2023-04-09T09:54:27;8.30;99.90
46217;DHT22;47258;59.424;13.482;2023-04-09T09:56:58;8.40;99.90
46217;DHT22;47258;59.424;13.482;2023-04-09T09:59:29;8.50;99.90
46217;DHT22;47258;59.424;13.482;2023-04-09T10:01:58;8.60;99.90
46217;DHT22;47258;59.424;13.482;2023-04-09T10:04:28;8.60;99.90
46217;DHT22;47258;59.424;13.482;2023-04-09T10:41:12;9.90;99.90
46217;DHT22;47258;59.424;13.482;2023-04-09T10:43:45;9.90;99.90
46217;DHT22;47258;59.424;13.482;2023-04-09T10:46:27;9.90;99.90
46217;DHT22;47258;59.424;13.482;2023-04-09T10:49:14;9.90;99.90
46217;DHT22;47258;59.424;13.482;2023-04-09T10:52:03;10.00;99.90
46217;DHT22;47258;59.424;13.482;2023-04-09T10:54:44;10.10;99.90
46217;DHT22;47258;59.424;13.482;2023-04-09T10:57:17;10.10;99.90
46217;DHT22;47258;59.424;13.482;2023-04-09T10:59:52;10.20;99.90
46217;DHT22;47258;59.424;13.482;2023-04-09T11:05:24;10.30;99.90
46217;DHT22;47258;59.424;13.482;2023-04-09T11:08:10;10.40;99.30
46217;DHT22;47258;59.424;13.482;2023-04-09T11:10:58;10.40;99.80
46217;DHT22;47258;59.424;13.482;2023-04-09T11:17:01;10.50;99.30
46217;DHT22;47258;59.424;13.482;2023-04-09T11:19:48;10.60;98.80
46217;DHT22;47258;59.424;13.482;2023-04-09T11:22:41;10.70;98.90
46217;DHT22;47258;59.424;13.482;2023-04-09T11:25:23;10.70;98.20
46217;DHT22;47258;59.424;13.482;2023-04-09T11:27:57;10.80;98.00
46217;DHT22;47258;59.424;13.482;2023-04-09T11:30:50;10.90;97.70
46217;DHT22;47258;59.424;13.482;2023-04-09T11:33:40;10.90;97.70
46217;DHT22;47258;59.424;13.482;2023-04-09T11:36:30;11.00;97.30
46217;DHT22;47258;59.424;13.482;2023-04-09T11:39:11;11.00;97.50
46217;DHT22;47258;59.424;13.482;2023-04-09T11:42:02;11.10;97.90
46217;DHT22;47258;59.424;13.482;2023-04-09T11:44:51;11.10;97.20
46217;DHT22;47258;59.424;13.482;2023-04-09T11:47:35;11.20;97.20
46217;DHT22;47258;59.424;13.482;2023-04-09T11:50:42;11.20;97.20
46217;DHT22;47258;59.424;13.482;2023-04-09T11:53:33;11.30;96.80
46217;DHT22;47258;59.424;13.482;2023-04-09T11:56:19;11.30;96.30
46217;DHT22;47258;59.424;13.482;2023-04-09T11:59:11;11.40;96.80
46217;DHT22;47258;59.424;13.482;2023-04-09T12:02:04;11.40;95.80
46217;DHT22;47258;59.424;13.482;2023-04-09T12:04:55;11.40;95.20
46217;DHT22;47258;59.424;13.482;2023-04-09T12:11:04;11.40;96.00
46217;DHT22;47258;59.424;13.482;2023-04-09T12:14:01;11.40;99.90
46217;DHT22;47258;59.424;13.482;2023-04-09T12:16:50;11.50;99.90
46217;DHT22;47258;59.424;13.482;2023-04-09T12:19:35;11.50;99.90
46217;DHT22;47258;59.424;13.482;2023-04-09T12:22:41;11.50;99.90
46217;DHT22;47258;59.424;13.482;2023-04-09T12:25:28;11.50;99.90
46217;DHT22;47258;59.424;13.482;2023-04-09T12:34:33;11.60;99.90
46217;DHT22;47258;59.424;13.482;2023-04-09T12:37:43;11.60;99.90
46217;DHT22;47258;59.424;13.482;2023-04-09T12:40:32;11.60;99.90
46217;DHT22;47258;59.424;13.482;2023-04-09T13:47:53;11.10;99.90
46217;DHT22;47258;59.424;13.482;2023-04-09T13:50:53;11.20;99.90
46217;DHT22;47258;59.424;13.482;2023-04-09T13:57:17;11.20;99.90
46217;DHT22;47258;59.424;13.482;2023-04-09T14:00:07;11.20;99.90
46217;DHT22;47258;59.424;13.482;2023-04-09T15:41:05;10.90;99.90
46217;DHT22;47258;59.424;13.482;2023-04-09T15:43:48;10.90;99.90
46217;DHT22;47258;59.424;13.482;2023-04-09T15:46:25;10.80;99.90
46217;DHT22;47258;59.424;13.482;2023-04-09T15:49:03;10.80;99.90
46217;DHT22;47258;59.424;13.482;2023-04-09T15:51:38;10.80;99.90
46217;DHT22;47258;59.424;13.482;2023-04-09T15:54:25;10.80;99.90
46217;DHT22;47258;59.424;13.482;2023-04-09T15:57:20;10.70;99.90
46217;DHT22;47258;59.424;13.482;2023-04-09T16:00:05;10.60;99.90
46217;DHT22;47258;59.424;13.482;2023-04-09T16:02:40;10.60;99.90
46217;DHT22;47258;59.424;13.482;2023-04-09T16:05:29;10.70;99.90
46217;DHT22;47258;59.424;13.482;2023-04-09T16:08:09;10.60;99.90
46217;DHT22;47258;59.424;13.482;2023-04-09T16:11:00;10.60;99.90
46217;DHT22;47258;59.424;13.482;2023-04-09T16:16:44;10.40;99.90
46217;DHT22;47258;59.424;13.482;2023-04-09T16:19:37;10.40;99.90
46217;DHT22;47258;59.424;13.482;2023-04-09T16:22:20;10.40;99.90
46217;DHT22;47258;59.424;13.482;2023-04-09T16:25:04;10.40;99.90
46217;DHT22;47258;59.424;13.482;2023-04-09T16:27:59;10.30;99.90
46217;DHT22;47258;59.424;13.482;2023-04-09T16:30:48;10.30;99.90
46217;DHT22;47258;59.424;13.482;2023-04-09T16:37:09;10.30;99.90
46217;DHT22;47258;59.424;13.482;2023-04-09T16:40:06;10.30;99.90
46217;DHT22;47258;59.424;13.482;2023-04-09T16:42:57;10.20;99.90
46217;DHT22;47258;59.424;13.482;2023-04-09T16:46:00;10.20;99.90
46217;DHT22;47258;59.424;13.482;2023-04-09T16:48:48;10.20;99.90
46217;DHT22;47258;59.424;13.482;2023-04-09T16:51:33;10.20;99.90
46217;DHT22;47258;59.424;13.482;2023-04-09T16:54:22;10.20;99.90
46217;DHT22;47258;59.424;13.482;2023-04-09T16:56:49;10.20;91.90
46217;DHT22;47258;59.424;13.482;2023-04-09T16:59:17;10.10;92.10
46217;DHT22;47258;59.424;13.482;2023-04-09T17:01:45;10.10;92.10
46217;DHT22;47258;59.424;13.482;2023-04-09T17:04:13;10.10;91.90
46217;DHT22;47258;59.424;13.482;2023-04-09T17:06:41;10.10;91.80
46217;DHT22;47258;59.424;13.482;2023-04-09T17:09:10;10.00;91.70
46217;DHT22;47258;59.424;13.482;2023-04-09T17:11:39;10.00;91.60
46217;DHT22;47258;59.424;13.482;2023-04-09T17:14:06;10.00;91.60
46217;DHT22;47258;59.424;13.482;2023-04-09T17:16:33;10.00;91.70
46217;DHT22;47258;59.424;13.482;2023-04-09T17:19:03;9.90;92.00
46217;DHT22;47258;59.424;13.482;2023-04-09T17:21:33;9.90;91.90
46217;DHT22;47258;59.424;13.482;2023-04-09T17:24:02;9.80;91.80
46217;DHT22;47258;59.424;13.482;2023-04-09T17:26:30;9.80;91.70
46217;DHT22;47258;59.424;13.482;2023-04-09T17:28:58;9.80;91.90
46217;DHT22;47258;59.424;13.482;2023-04-09T17:31:26;9.80;92.20
46217;DHT22;47258;59.424;13.482;2023-04-09T17:33:53;9.70;92.00
46217;DHT22;47258;59.424;13.482;2023-04-09T17:36:20;9.70;92.10
46217;DHT22;47258;59.424;13.482;2023-04-09T17:38:47;9.70;92.40
46217;DHT22;47258;59.424;13.482;2023-04-09T17:41:16;9.60;92.80
46217;DHT22;47258;59.424;13.482;2023-04-09T17:43:44;9.60;93.10
46217;DHT22;47258;59.424;13.482;2023-04-09T17:46:13;9.50;93.10
46217;DHT22;47258;59.424;13.482;2023-04-09T17:48:41;9.50;93.70
46217;DHT22;47258;59.424;13.482;2023-04-09T17:51:12;9.50;93.40
46217;DHT22;47258;59.424;13.482;2023-04-09T17:53:40;9.40;93.50
46217;DHT22;47258;59.424;13.482;2023-04-09T17:56:09;9.40;93.60
46217;DHT22;47258;59.424;13.482;2023-04-09T17:58:39;9.40;93.90
46217;DHT22;47258;59.424;13.482;2023-04-09T18:01:07;9.30;93.80
46217;DHT22;47258;59.424;13.482;2023-04-09T18:03:35;9.30;94.00
46217;DHT22;47258;59.424;13.482;2023-04-09T18:06:05;9.30;94.50
46217;DHT22;47258;59.424;13.482;2023-04-09T18:08:32;9.30;94.40
46217;DHT22;47258;59.424;13.482;2023-04-09T18:11:00;9.20;94.40
46217;DHT22;47258;59.424;13.482;2023-04-09T18:13:28;9.20;94.70
46217;DHT22;47258;59.424;13.482;2023-04-09T18:15:55;9.20;94.90
46217;DHT22;47258;59.424;13.482;2023-04-09T18:18:22;9.10;95.00
46217;DHT22;47258;59.424;13.482;2023-04-09T18:20:51;9.10;95.10
46217;DHT22;47258;59.424;13.482;2023-04-09T18:23:18;9.00;95.10
46217;DHT22;47258;59.424;13.482;2023-04-09T18:25:45;9.00;95.10
46217;DHT22;47258;59.424;13.482;2023-04-09T18:28:16;8.90;95.30
46217;DHT22;47258;59.424;13.482;2023-04-09T18:30:43;8.90;95.50
46217;DHT22;47258;59.424;13.482;2023-04-09T18:33:10;8.90;95.60
46217;DHT22;47258;59.424;13.482;2023-04-09T18:35:37;8.80;95.80
46217;DHT22;47258;59.424;13.482;2023-04-09T18:38:06;8.80;96.00
46217;DHT22;47258;59.424;13.482;2023-04-09T18:40:38;8.70;96.20
46217;DHT22;47258;59.424;13.482;2023-04-09T18:43:05;8.70;96.50
46217;DHT22;47258;59.424;13.482;2023-04-09T18:45:32;8.60;96.70
46217;DHT22;47258;59.424;13.482;2023-04-09T18:47:59;8.50;96.90
46217;DHT22;47258;59.424;13.482;2023-04-09T18:50:27;8.40;97.00
46217;DHT22;47258;59.424;13.482;2023-04-09T18:52:54;8.40;97.00
46217;DHT22;47258;59.424;13.482;2023-04-09T18:55:22;8.30;97.00
46217;DHT22;47258;59.424;13.482;2023-04-09T18:57:49;8.30;96.60
46217;DHT22;47258;59.424;13.482;2023-04-09T19:00:17;8.20;95.90
46217;DHT22;47258;59.424;13.482;2023-04-09T19:02:44;8.10;95.70
46217;DHT22;47258;59.424;13.482;2023-04-09T19:05:12;8.10;95.90
46217;DHT22;47258;59.424;13.482;2023-04-09T19:07:40;8.10;95.40
46217;DHT22;47258;59.424;13.482;2023-04-09T19:10:08;8.00;95.40
46217;DHT22;47258;59.424;13.482;2023-04-09T19:12:37;8.00;95.50
46217;DHT22;47258;59.424;13.482;2023-04-09T19:15:11;8.00;95.20
46217;DHT22;47258;59.424;13.482;2023-04-09T19:17:38;7.90;95.30
46217;DHT22;47258;59.424;13.482;2023-04-09T19:20:05;7.90;95.50
46217;DHT22;47258;59.424;13.482;2023-04-09T19:22:33;7.90;95.80
46217;DHT22;47258;59.424;13.482;2023-04-09T19:25:00;7.80;95.90
46217;DHT22;47258;59.424;13.482;2023-04-09T19:27:27;7.80;96.30
46217;DHT22;47258;59.424;13.482;2023-04-09T19:29:56;7.70;96.50
46217;DHT22;47258;59.424;13.482;2023-04-09T19:32:24;7.60;96.30
46217;DHT22;47258;59.424;13.482;2023-04-09T19:34:51;7.60;96.60
46217;DHT22;47258;59.424;13.482;2023-04-09T19:37:18;7.50;96.40
46217;DHT22;47258;59.424;13.482;2023-04-09T19:39:45;7.50;96.50
46217;DHT22;47258;59.424;13.482;2023-04-09T19:42:13;7.50;96.60
46217;DHT22;47258;59.424;13.482;2023-04-09T19:44:40;7.40;96.60
46217;DHT22;47258;59.424;13.482;2023-04-09T19:47:08;7.30;96.90
46217;DHT22;47258;59.424;13.482;2023-04-09T19:49:35;7.20;97.00
46217;DHT22;47258;59.424;13.482;2023-04-09T19:52:02;7.20;97.00